Terminal Aerodrome Forecast
Issued by NWS

Home | Current Version | Previous Version | Text Only | Print | Product List | Glossary On
Versions: 1 2 3 4 5 6 7 8 9 10 11 12 13
000
FTUS43 KIND 022327
TAFBMG
TAF
KBMG 022327Z 0300/0324 20008KT P6SM SCT250
     FM030900 22006KT P6SM SCT060 BKN100
     FM031400 28007KT P6SM SCT050 BKN100
      AMD LTD TO CLD VIS AND WIND 0301/0313=

USA.gov is the U.S. government's official web portal to all federal, state and local government web resources and services.